Time;durP1;ratioP1;P1;durP2;ratioP2;P2;SDS_P1;SDS_P2;PMS_P1;PMS_P2;Temp;Humidity;BMP_temperature;BMP_pressure;BME280_temperature;BME280_humidity;BME280_pressure;Samples;Min_cycle;Max_cycle;Signal;HPM_P1;HPM_P2
2021/05/12 00:00:30;;;;;;;7.57;7.00;;;11.90;99.90;;;;;;5069604;28;20472;-86
2021/05/12 00:03:07;;;;;;;7.27;6.67;;;11.80;99.90;;;;;;5079860;28;20969;-85
2021/05/12 00:05:41;;;;;;;7.93;7.23;;;11.90;99.90;;;;;;5074768;28;20504;-84
2021/05/12 00:08:16;;;;;;;8.60;7.90;;;11.90;99.90;;;;;;5070267;28;20456;-85
2021/05/12 00:10:51;;;;;;;8.00;7.40;;;11.90;99.90;;;;;;5072583;28;20452;-83
2021/05/12 00:13:31;;;;;;;7.53;7.03;;;11.90;99.90;;;;;;5076892;28;20459;-84
2021/05/12 00:16:08;;;;;;;8.70;8.00;;;11.90;99.90;;;;;;5078305;28;20799;-85
2021/05/12 00:18:44;;;;;;;8.37;7.63;;;12.00;99.90;;;;;;5076685;28;20482;-84
2021/05/12 00:21:31;;;;;;;8.00;7.40;;;12.00;99.90;;;;;;5072157;28;20494;-87
2021/05/12 00:24:06;;;;;;;8.33;7.73;;;12.00;99.90;;;;;;5065817;28;20444;-86
2021/05/12 00:26:42;;;;;;;8.30;7.70;;;12.00;99.90;;;;;;5064996;28;20463;-87
2021/05/12 00:29:21;;;;;;;8.60;7.90;;;12.00;99.90;;;;;;5059265;28;20463;-88
2021/05/12 00:31:56;;;;;;;9.57;8.80;;;12.00;99.90;;;;;;5060867;28;20440;-87
2021/05/12 00:34:31;;;;;;;8.43;7.73;;;12.10;99.90;;;;;;5056434;28;20461;-88
2021/05/12 00:37:06;;;;;;;7.77;7.17;;;12.00;99.90;;;;;;5059570;28;20445;-84
2021/05/12 00:39:41;;;;;;;9.17;8.47;;;12.10;99.90;;;;;;5058101;28;21038;-86
2021/05/12 00:42:16;;;;;;;8.70;8.00;;;12.00;99.90;;;;;;5074415;28;20505;-89
2021/05/12 00:44:52;;;;;;;8.20;7.60;;;12.00;99.90;;;;;;5073276;28;20463;-90
2021/05/12 00:47:31;;;;;;;9.13;8.33;;;12.00;99.90;;;;;;5064616;28;20448;-83
2021/05/12 00:50:04;;;;;;;9.20;8.40;;;12.00;99.90;;;;;;5064422;28;20981;-88
2021/05/12 00:52:40;;;;;;;9.97;9.17;;;12.00;99.90;;;;;;5057479;28;20611;-85
2021/05/12 00:55:15;;;;;;;10.93;9.40;;;12.00;99.90;;;;;;5048432;28;20460;-84
2021/05/12 00:57:52;;;;;;;9.77;8.77;;;12.00;99.90;;;;;;5053997;28;20510;-85
2021/05/12 01:00:31;;;;;;;10.20;9.30;;;12.00;99.90;;;;;;5049351;28;20498;-84
2021/05/12 01:03:19;;;;;;;11.30;10.30;;;12.00;99.90;;;;;;5052651;28;20472;-87
2021/05/12 01:06:22;;;;;;;10.07;9.27;;;12.00;99.90;;;;;;5047687;28;20464;-85
2021/05/12 01:08:57;;;;;;;10.10;9.20;;;12.00;99.90;;;;;;5049620;28;20492;-85
2021/05/12 01:11:35;;;;;;;10.90;10.00;;;11.90;99.90;;;;;;5056407;28;20456;-85
2021/05/12 01:14:11;;;;;;;10.50;9.60;;;11.90;99.90;;;;;;5057667;28;20465;-88
2021/05/12 01:16:49;;;;;;;10.30;9.47;;;12.00;99.90;;;;;;5051697;28;20464;-83
2021/05/12 01:19:29;;;;;;;10.47;9.57;;;12.00;99.90;;;;;;5049329;28;20471;-83
2021/05/12 01:22:10;;;;;;;10.13;9.30;;;12.00;99.90;;;;;;5045355;28;20447;-83
2021/05/12 01:24:45;;;;;;;10.90;9.90;;;11.90;99.90;;;;;;5053194;28;20457;-84
2021/05/12 01:27:27;;;;;;;9.83;8.97;;;12.00;99.90;;;;;;5047063;28;20817;-86
2021/05/12 01:30:02;;;;;;;10.40;9.50;;;11.90;99.90;;;;;;5049928;28;20462;-86
2021/05/12 01:32:39;;;;;;;11.20;10.20;;;11.90;99.90;;;;;;5048124;28;20460;-87
2021/05/12 01:35:15;;;;;;;10.77;9.97;;;11.90;99.90;;;;;;5058860;28;20461;-91
2021/05/12 01:37:51;;;;;;;11.73;10.73;;;11.90;99.90;;;;;;5068498;28;20471;-86
2021/05/12 01:40:26;;;;;;;12.73;11.63;;;11.90;99.90;;;;;;5064569;28;20481;-87
2021/05/12 01:43:12;;;;;;;12.80;11.70;;;11.80;99.90;;;;;;5058615;28;20484;-85
2021/05/12 01:45:47;;;;;;;12.83;11.73;;;11.90;99.90;;;;;;5057610;28;20454;-86
2021/05/12 01:48:22;;;;;;;12.87;11.77;;;11.80;99.90;;;;;;5054491;28;20446;-84
2021/05/12 01:50:57;;;;;;;13.57;12.40;;;11.80;99.90;;;;;;5059136;28;20445;-84
2021/05/12 01:53:34;;;;;;;14.80;13.47;;;11.80;99.90;;;;;;5049498;28;20445;-87
2021/05/12 01:56:09;;;;;;;13.83;12.63;;;11.90;99.90;;;;;;5049164;28;20457;-84
2021/05/12 01:58:52;;;;;;;14.27;12.97;;;11.80;99.90;;;;;;5047835;28;20449;-84
2021/05/12 02:01:27;;;;;;;16.00;14.53;;;11.80;99.90;;;;;;5046736;28;20465;-85
2021/05/12 02:04:07;;;;;;;15.33;13.93;;;11.80;99.90;;;;;;5047603;28;20453;-86
2021/05/12 02:06:42;;;;;;;14.60;13.30;;;11.80;99.90;;;;;;5046267;28;20443;-83
2021/05/12 02:12:08;;;;;;;15.30;14.00;;;11.80;99.90;;;;;;5049430;28;20452;-85
2021/05/12 02:14:42;;;;;;;15.60;14.20;;;11.80;99.90;;;;;;5051216;28;20453;-86
2021/05/12 02:17:17;;;;;;;16.87;15.40;;;11.70;99.90;;;;;;5056091;28;20425;-87
2021/05/12 02:19:52;;;;;;;16.83;15.30;;;11.70;99.90;;;;;;5061387;28;20472;-84
2021/05/12 02:22:27;;;;;;;15.77;14.27;;;11.70;99.90;;;;;;5051292;28;20457;-85
2021/05/12 02:25:04;;;;;;;16.53;15.13;;;11.70;99.90;;;;;;5049912;28;20896;-83
2021/05/12 02:27:39;;;;;;;15.20;13.80;;;11.70;99.90;;;;;;5055863;28;20453;-86
2021/05/12 02:30:17;;;;;;;16.70;15.17;;;11.80;99.90;;;;;;5053478;28;20452;-85
2021/05/12 02:32:56;;;;;;;16.87;15.27;;;11.70;99.90;;;;;;5050301;28;20475;-87
2021/05/12 02:35:31;;;;;;;16.93;15.43;;;11.70;99.90;;;;;;5052478;28;20469;-86
2021/05/12 02:38:08;;;;;;;16.23;14.77;;;11.70;99.90;;;;;;5066942;28;20440;-84
2021/05/12 02:40:44;;;;;;;16.60;15.00;;;11.60;99.90;;;;;;5048468;28;20470;-88
2021/05/12 02:43:16;;;;;;;16.87;15.37;;;11.60;99.90;;;;;;5053197;28;20441;-83
2021/05/12 02:45:51;;;;;;;16.60;15.10;;;11.60;99.90;;;;;;5049150;28;20523;-85
2021/05/12 02:48:26;;;;;;;16.47;15.03;;;11.60;99.90;;;;;;5050542;28;20442;-83
2021/05/12 02:51:01;;;;;;;16.80;15.13;;;11.50;99.90;;;;;;5050018;28;20457;-84
2021/05/12 02:53:36;;;;;;;14.40;13.13;;;11.50;99.90;;;;;;5044952;28;20457;-85
2021/05/12 02:56:20;;;;;;;14.43;13.13;;;11.60;99.90;;;;;;5045612;28;20495;-84
2021/05/12 02:58:55;;;;;;;16.90;15.20;;;11.60;99.90;;;;;;5047317;28;20528;-83
2021/05/12 03:01:30;;;;;;;15.80;14.33;;;11.60;99.90;;;;;;5048450;28;20468;-85
2021/05/12 03:04:05;;;;;;;16.10;14.70;;;11.60;99.90;;;;;;5046442;28;20449;-84
2021/05/12 03:06:40;;;;;;;15.90;14.43;;;11.60;99.90;;;;;;5051324;28;20461;-84
2021/05/12 03:09:15;;;;;;;15.40;13.90;;;11.60;99.90;;;;;;5048306;28;20492;-88
2021/05/12 03:11:56;;;;;;;15.17;13.77;;;11.60;99.90;;;;;;5052265;28;20464;-88
2021/05/12 03:14:44;;;;;;;15.87;14.40;;;11.60;99.90;;;;;;5057622;28;20446;-85
2021/05/12 03:17:18;;;;;;;15.00;13.70;;;11.70;99.90;;;;;;5051290;28;20453;-85
2021/05/12 03:19:58;;;;;;;14.60;13.40;;;11.70;99.90;;;;;;5052003;28;20470;-85
2021/05/12 03:22:33;;;;;;;14.60;13.20;;;11.70;99.90;;;;;;5053333;28;20448;-85
2021/05/12 03:25:14;;;;;;;14.03;12.83;;;11.70;99.90;;;;;;5051436;28;21294;-83
2021/05/12 03:27:57;;;;;;;13.77;12.57;;;11.60;99.90;;;;;;5050321;28;20458;-85
2021/05/12 03:30:34;;;;;;;13.07;11.87;;;11.70;99.90;;;;;;5043863;28;20453;-86
2021/05/12 03:33:17;;;;;;;12.73;11.63;;;11.70;99.90;;;;;;5051033;28;20457;-83
2021/05/12 03:35:53;;;;;;;13.60;12.30;;;11.70;99.90;;;;;;5046013;28;20456;-83
2021/05/12 03:38:28;;;;;;;13.77;12.53;;;11.70;99.90;;;;;;5048701;28;20469;-87
2021/05/12 03:41:07;;;;;;;13.47;12.37;;;11.70;99.90;;;;;;5051728;28;21070;-84
2021/05/12 03:43:48;;;;;;;12.50;11.40;;;11.70;99.90;;;;;;5050897;28;20484;-85
2021/05/12 03:46:23;;;;;;;12.60;11.40;;;11.70;99.90;;;;;;5052877;28;20448;-84
2021/05/12 03:48:58;;;;;;;12.80;11.60;;;11.60;99.90;;;;;;5048538;28;20492;-90
2021/05/12 03:51:35;;;;;;;13.23;11.93;;;11.70;99.90;;;;;;5049931;28;20473;-88
2021/05/12 03:54:15;;;;;;;13.43;12.20;;;11.70;99.90;;;;;;5050840;28;20454;-88
2021/05/12 03:56:50;;;;;;;13.37;12.07;;;11.70;99.90;;;;;;5051017;28;20437;-86
2021/05/12 03:59:26;;;;;;;12.53;11.43;;;11.70;99.90;;;;;;5046985;28;20469;-83
2021/05/12 04:02:01;;;;;;;13.07;11.77;;;11.70;99.90;;;;;;5053352;28;20445;-86
2021/05/12 04:04:36;;;;;;;14.00;12.60;;;11.70;99.90;;;;;;5055430;28;20467;-85
2021/05/12 04:07:16;;;;;;;14.77;13.47;;;11.60;99.90;;;;;;5043486;28;20476;-85
2021/05/12 04:09:52;;;;;;;13.10;11.90;;;11.60;99.90;;;;;;5038566;28;20481;-83
2021/05/12 04:12:28;;;;;;;13.00;11.80;;;11.60;99.90;;;;;;5043257;28;20823;-84
2021/05/12 04:15:04;;;;;;;13.80;12.47;;;11.60;99.90;;;;;;5046592;28;20546;-84
2021/05/12 04:17:44;;;;;;;14.63;13.30;;;11.70;99.90;;;;;;5042375;28;21316;-85
2021/05/12 04:20:21;;;;;;;15.60;14.20;;;11.70;99.90;;;;;;5041883;28;20514;-84
2021/05/12 04:22:56;;;;;;;14.60;13.20;;;11.60;99.90;;;;;;5046902;28;20449;-84
2021/05/12 04:25:33;;;;;;;16.37;14.77;;;11.70;99.90;;;;;;5048778;28;20600;-87
2021/05/12 04:28:16;;;;;;;17.30;15.63;;;11.70;99.90;;;;;;5046530;28;20466;-85
2021/05/12 04:30:52;;;;;;;17.60;15.90;;;11.60;99.90;;;;;;5048023;28;20449;-84
2021/05/12 04:33:35;;;;;;;20.03;17.03;;;11.70;99.90;;;;;;5046450;28;20457;-84
2021/05/12 04:36:25;;;;;;;20.30;18.10;;;11.70;99.90;;;;;;5057925;28;20456;-87
2021/05/12 04:39:01;;;;;;;22.53;19.97;;;11.70;99.90;;;;;;5052272;28;20454;-87
2021/05/12 04:41:36;;;;;;;22.03;19.40;;;11.70;99.90;;;;;;5045993;28;20458;-87
2021/05/12 04:44:12;;;;;;;21.63;19.33;;;11.80;99.90;;;;;;5059323;28;20453;-88
2021/05/12 04:46:57;;;;;;;23.97;21.37;;;11.70;99.90;;;;;;5057476;28;20474;-84
2021/05/12 04:49:32;;;;;;;27.03;21.07;;;11.70;99.90;;;;;;5062122;28;20457;-86
2021/05/12 04:52:07;;;;;;;26.67;22.03;;;11.70;99.90;;;;;;5062709;28;20453;-91
2021/05/12 04:54:42;;;;;;;25.70;22.20;;;11.70;99.90;;;;;;5052390;28;20460;-86
2021/05/12 04:57:17;;;;;;;24.67;21.40;;;11.70;99.90;;;;;;5060583;28;20460;-86
2021/05/12 04:59:53;;;;;;;25.50;22.53;;;11.80;99.90;;;;;;5055350;28;20485;-87
2021/05/12 05:02:24;;;;;;;28.63;21.87;;;11.70;99.90;;;;;;5061552;28;20450;-85
2021/05/12 05:04:59;;;;;;;32.77;25.13;;;11.70;99.90;;;;;;5052938;28;20557;-83
2021/05/12 05:07:32;;;;;;;30.27;24.50;;;11.70;99.90;;;;;;5058822;28;20471;-83
2021/05/12 05:10:08;;;;;;;31.50;24.40;;;11.70;99.90;;;;;;5055400;28;20476;-87
2021/05/12 05:12:43;;;;;;;32.80;25.07;;;11.70;99.90;;;;;;5058438;28;20453;-85
2021/05/12 05:15:21;;;;;;;32.17;25.33;;;11.70;99.90;;;;;;5067838;28;20443;-89
2021/05/12 05:18:03;;;;;;;33.50;25.80;;;11.70;99.90;;;;;;5065846;28;20453;-88
2021/05/12 05:23:52;;;;;;;32.87;25.07;;;11.70;99.90;;;;;;5006010;28;20453;-88
2021/05/12 05:26:40;;;;;;;34.43;26.27;;;11.70;99.90;;;;;;5055520;28;20505;-88
2021/05/12 05:29:20;;;;;;;28.60;23.50;;;11.60;99.90;;;;;;5056041;28;20449;-88
2021/05/12 05:32:01;;;;;;;29.90;25.60;;;11.70;99.90;;;;;;5047855;28;20465;-88
2021/05/12 05:34:59;;;;;;;34.27;26.53;;;11.80;99.90;;;;;;5045686;28;20471;-88
2021/05/12 05:37:41;;;;;;;32.73;24.53;;;11.80;99.90;;;;;;5046002;28;20536;-88
2021/05/12 05:40:17;;;;;;;29.43;24.47;;;11.80;99.90;;;;;;5041574;28;20518;-88
2021/05/12 05:43:13;;;;;;;34.40;25.93;;;11.80;99.90;;;;;;5049079;28;20503;-89
2021/05/12 05:46:28;;;;;;;30.83;25.80;;;11.90;99.90;;;;;;5052184;28;20536;-88
2021/05/12 05:49:08;;;;;;;27.00;23.90;;;11.80;99.90;;;;;;5057553;28;20465;-88
2021/05/12 05:51:50;;;;;;;29.70;25.57;;;11.80;99.90;;;;;;5057619;28;20618;-89
2021/05/12 05:54:22;;;;;;;28.67;24.80;;;11.70;99.90;;;;;;5062123;28;20492;-88
2021/05/12 06:00:26;;;;;;;27.03;23.77;;;11.70;99.90;;;;;;5027076;28;20522;-88
2021/05/12 06:03:04;;;;;;;25.33;22.53;;;11.70;99.90;;;;;;5070213;28;20452;-89
2021/05/12 06:05:37;;;;;;;28.17;23.80;;;11.60;99.90;;;;;;5056396;28;20433;-87
2021/05/12 06:17:35;;;;;;;30.20;24.37;;;11.60;99.90;;;;;;5006805;28;20461;-88
2021/05/12 06:23:25;;;;;;;28.80;24.17;;;11.60;99.90;;;;;;5053596;28;20446;-90
2021/05/12 06:26:22;;;;;;;32.73;27.63;;;11.50;99.90;;;;;;5057341;22;20518;-88
2021/05/12 06:29:01;;;;;;;30.27;26.53;;;11.50;99.90;;;;;;5060634;28;20450;-88
2021/05/12 06:31:41;;;;;;;36.10;28.67;;;11.50;99.90;;;;;;5059138;28;20453;-88
2021/05/12 06:34:24;;;;;;;31.50;26.60;;;11.50;99.90;;;;;;5066578;28;20479;-87
2021/05/12 06:39:51;;;;;;;32.73;29.17;;;11.50;99.90;;;;;;5056470;28;20448;-88
2021/05/12 06:42:42;;;;;;;37.83;29.40;;;11.50;99.90;;;;;;5066428;28;20554;-88
2021/05/12 06:48:31;;;;;;;34.60;29.63;;;11.60;99.90;;;;;;5067749;28;20461;-89
2021/05/12 06:53:57;;;;;;;32.33;28.50;;;11.60;99.90;;;;;;5059754;28;20457;-87
2021/05/12 07:05:05;;;;;;;32.77;28.37;;;11.50;99.90;;;;;;5058918;28;20439;-89
2021/05/12 07:07:46;;;;;;;37.57;30.40;;;11.60;99.90;;;;;;5059421;28;20456;-88
2021/05/12 07:13:15;;;;;;;36.90;29.27;;;11.70;99.90;;;;;;5043047;28;20479;-89
2021/05/12 07:16:14;;;;;;;30.33;26.90;;;11.70;99.90;;;;;;5057478;28;20544;-88
2021/05/12 07:18:56;;;;;;;34.10;27.67;;;11.70;99.90;;;;;;5057714;28;20454;-89
2021/05/12 07:22:07;;;;;;;29.67;25.67;;;11.70;99.90;;;;;;5038882;28;20564;-88
2021/05/12 07:43:45;;;;;;;32.87;27.13;;;11.60;99.90;;;;;;5119396;28;20544;-89
2021/05/12 07:54:53;;;;;;;35.80;29.00;;;11.50;99.90;;;;;;5116504;28;20440;-88
2021/05/12 07:57:32;;;;;;;36.40;29.10;;;11.60;99.90;;;;;;5101734;28;20495;-88
2021/05/12 08:00:10;;;;;;;31.30;27.10;;;11.60;99.90;;;;;;5106704;28;20468;-86
2021/05/12 08:02:46;;;;;;;36.13;30.07;;;11.70;99.90;;;;;;5116891;28;20443;-85
2021/05/12 08:05:22;;;;;;;32.63;28.77;;;11.80;99.90;;;;;;5120097;27;20506;-81
2021/05/12 08:07:55;;;;;;;32.40;29.00;;;11.70;99.90;;;;;;5109381;28;20472;-82
2021/05/12 08:10:31;;;;;;;30.20;26.93;;;11.70;99.90;;;;;;5120528;27;20938;-79
2021/05/12 08:13:06;;;;;;;31.20;27.37;;;11.80;99.90;;;;;;5123310;27;20457;-82
2021/05/12 08:15:42;;;;;;;29.43;26.50;;;11.90;99.90;;;;;;5123289;27;20960;-81
2021/05/12 08:18:18;;;;;;;32.70;27.47;;;11.90;99.90;;;;;;5123257;27;20515;-80
2021/05/12 08:20:55;;;;;;;32.63;25.90;;;11.80;99.90;;;;;;5119182;28;20462;-80
2021/05/12 08:23:35;;;;;;;31.73;28.10;;;11.70;99.90;;;;;;5103380;28;20543;-79
2021/05/12 08:26:11;;;;;;;30.37;27.03;;;11.70;99.90;;;;;;5121576;28;21054;-84
2021/05/12 08:28:46;;;;;;;34.33;28.73;;;11.70;99.90;;;;;;5115653;28;20449;-80
2021/05/12 08:31:22;;;;;;;38.50;30.10;;;11.70;99.90;;;;;;5118521;28;20444;-83
2021/05/12 08:33:55;;;;;;;33.00;29.43;;;11.80;99.90;;;;;;5115336;27;20533;-81
2021/05/12 08:36:30;;;;;;;30.67;27.03;;;11.70;99.90;;;;;;5119333;28;20451;-80
2021/05/12 08:39:06;;;;;;;29.80;26.77;;;11.70;99.90;;;;;;5114817;27;20453;-85
2021/05/12 08:41:41;;;;;;;30.83;27.53;;;11.70;99.90;;;;;;5127463;28;20528;-83
2021/05/12 08:44:16;;;;;;;31.17;27.90;;;11.70;99.90;;;;;;5130492;27;20441;-84
2021/05/12 08:46:53;;;;;;;34.47;29.73;;;11.60;99.90;;;;;;5134312;28;20442;-84
2021/05/12 08:49:26;;;;;;;35.60;29.67;;;11.70;99.90;;;;;;5131042;28;20465;-84
2021/05/12 08:52:02;;;;;;;33.23;29.30;;;11.60;99.90;;;;;;5134756;28;20460;-82
2021/05/12 08:54:39;;;;;;;35.50;30.13;;;11.70;99.90;;;;;;5135112;28;20489;-86
2021/05/12 08:57:15;;;;;;;32.10;28.70;;;11.70;99.90;;;;;;5124542;28;20487;-80
2021/05/12 08:59:50;;;;;;;33.10;28.90;;;11.60;99.90;;;;;;5116038;28;20543;-82
2021/05/12 09:02:27;;;;;;;35.03;29.47;;;11.70;99.90;;;;;;5117675;28;20450;-86
2021/05/12 09:05:02;;;;;;;35.67;29.73;;;12.00;99.90;;;;;;5119799;28;20838;-82
2021/05/12 09:07:45;;;;;;;33.70;27.57;;;12.00;99.90;;;;;;5116262;28;20454;-80
2021/05/12 09:10:20;;;;;;;33.70;28.10;;;12.10;99.90;;;;;;5118599;28;20450;-80
2021/05/12 09:12:59;;;;;;;32.80;29.00;;;12.20;99.90;;;;;;5124725;28;20449;-80
2021/05/12 09:15:35;;;;;;;30.10;26.87;;;12.30;99.90;;;;;;5122931;27;20457;-86
2021/05/12 09:18:12;;;;;;;29.97;26.80;;;12.30;99.90;;;;;;5126588;28;20532;-80
2021/05/12 09:20:50;;;;;;;32.77;28.50;;;12.60;99.90;;;;;;5114495;28;20583;-81
2021/05/12 09:23:29;;;;;;;31.83;28.53;;;12.30;99.90;;;;;;5118618;28;21029;-84
2021/05/12 09:26:04;;;;;;;31.23;27.77;;;12.20;99.90;;;;;;5123839;27;20830;-83
2021/05/12 09:28:40;;;;;;;30.63;27.30;;;12.30;99.90;;;;;;5123503;28;20513;-82
2021/05/12 09:31:18;;;;;;;34.00;28.20;;;12.20;99.90;;;;;;5121885;27;20456;-81
2021/05/12 09:33:55;;;;;;;36.30;30.20;;;12.20;99.90;;;;;;5123137;28;20517;-82
2021/05/12 09:36:36;;;;;;;33.30;28.27;;;12.20;99.90;;;;;;5117796;28;20474;-85
2021/05/12 09:39:15;;;;;;;32.37;28.87;;;12.20;99.90;;;;;;5104763;28;20446;-83
2021/05/12 09:41:56;;;;;;;32.23;28.17;;;12.20;99.90;;;;;;5122562;28;20825;-85
2021/05/12 09:44:38;;;;;;;30.77;27.50;;;12.20;99.90;;;;;;5123028;27;20458;-83
2021/05/12 09:47:13;;;;;;;34.17;26.90;;;12.10;99.90;;;;;;5128938;28;20469;-87
2021/05/12 09:49:55;;;;;;;31.20;27.47;;;12.20;99.90;;;;;;5132010;28;20512;-86
2021/05/12 09:52:39;;;;;;;33.53;28.17;;;12.20;99.90;;;;;;5124011;28;20465;-85
2021/05/12 09:55:17;;;;;;;33.87;28.93;;;12.40;99.90;;;;;;5127071;28;20479;-86
2021/05/12 09:58:16;;;;;;;35.20;27.80;;;12.60;99.90;;;;;;5116127;28;20507;-83
2021/05/12 10:01:08;;;;;;;30.90;27.50;;;12.70;99.90;;;;;;5120456;28;20476;-82
2021/05/12 10:03:41;;;;;;;29.27;25.90;;;12.80;99.90;;;;;;5120971;28;21117;-83
2021/05/12 10:06:14;;;;;;;29.73;25.37;;;12.90;99.90;;;;;;5099169;28;20478;-81
2021/05/12 10:08:54;;;;;;;31.50;26.47;;;12.80;99.90;;;;;;5101620;28;20445;-85
2021/05/12 10:11:29;;;;;;;27.87;25.10;;;13.10;99.90;;;;;;5122597;28;20452;-84
2021/05/12 10:14:04;;;;;;;29.43;26.30;;;13.10;99.90;;;;;;5126202;28;20641;-87
2021/05/12 10:16:49;;;;;;;27.53;24.70;;;13.10;99.90;;;;;;5126427;28;20446;-88
2021/05/12 10:19:26;;;;;;;29.43;25.47;;;13.00;99.90;;;;;;5132055;28;20775;-89
2021/05/12 10:27:51;;;;;;;33.53;25.50;;;12.80;99.90;;;;;;5116230;28;20451;-84
2021/05/12 10:30:27;;;;;;;28.40;25.40;;;13.10;99.90;;;;;;5100282;28;20449;-86
2021/05/12 10:33:11;;;;;;;25.00;22.50;;;13.60;99.90;;;;;;5105688;28;20944;-85
2021/05/12 10:35:49;;;;;;;28.97;25.00;;;13.50;99.90;;;;;;5114713;28;20481;-85
2021/05/12 10:38:35;;;;;;;26.90;24.27;;;13.60;99.90;;;;;;5121170;28;20521;-86
2021/05/12 10:41:09;;;;;;;26.20;23.30;;;13.50;99.90;;;;;;5114684;28;21051;-82
2021/05/12 10:43:50;;;;;;;26.23;23.63;;;13.10;99.90;;;;;;5111777;28;20484;-81
2021/05/12 10:46:35;;;;;;;27.87;25.10;;;13.10;99.90;;;;;;5114497;28;20446;-81
2021/05/12 10:49:13;;;;;;;26.90;23.63;;;13.10;99.90;;;;;;5114938;28;20453;-81
2021/05/12 10:51:51;;;;;;;29.70;25.73;;;;;;;;;;5119587;28;20505;-79
2021/05/12 10:54:46;;;;;;;28.00;23.50;;;12.90;99.90;;;;;;5092595;28;20441;-77
2021/05/12 10:57:52;;;;;;;27.27;24.60;;;12.70;99.90;;;;;;5110665;28;20445;-76
2021/05/12 11:00:27;;;;;;;30.50;27.20;;;12.60;99.90;;;;;;5107617;28;20480;-75
2021/05/12 11:03:03;;;;;;;31.93;28.40;;;12.70;99.90;;;;;;5111559;28;20454;-79
2021/05/12 11:06:05;;;;;;;29.37;26.37;;;12.80;99.90;;;;;;5110869;28;20453;-75
2021/05/12 11:09:00;;;;;;;28.87;25.77;;;12.60;99.90;;;;;;5108121;28;20453;-75
2021/05/12 11:11:33;;;;;;;27.13;24.33;;;12.50;99.90;;;;;;5108306;28;21013;-76
2021/05/12 11:14:27;;;;;;;27.83;24.93;;;12.60;99.90;;;;;;5109452;28;20504;-78
2021/05/12 11:17:10;;;;;;;29.80;26.53;;;12.50;99.90;;;;;;5107877;28;20446;-76
2021/05/12 11:19:56;;;;;;;27.73;24.77;;;12.60;99.90;;;;;;5100929;28;20452;-73
2021/05/12 11:22:44;;;;;;;31.63;27.43;;;12.40;99.90;;;;;;5110088;28;20991;-76
2021/05/12 11:25:43;;;;;;;32.80;26.90;;;12.50;99.90;;;;;;5112476;28;20507;-75
2021/05/12 11:34:01;;;;;;;31.93;26.97;;;12.70;99.90;;;;;;5114293;28;20824;-78
2021/05/12 11:36:40;;;;;;;28.70;24.60;;;12.90;99.90;;;;;;5116304;27;20456;-76
2021/05/12 11:39:13;;;;;;;30.40;25.77;;;12.90;99.90;;;;;;5101233;28;20908;-78
2021/05/12 11:41:49;;;;;;;26.60;23.80;;;13.00;99.90;;;;;;5108877;28;20500;-78
2021/05/12 11:44:26;;;;;;;27.93;24.93;;;13.20;99.90;;;;;;5114493;28;20939;-77
2021/05/12 11:47:02;;;;;;;31.50;25.60;;;13.30;99.90;;;;;;5113560;28;20552;-77
2021/05/12 11:49:39;;;;;;;27.77;23.93;;;13.40;99.90;;;;;;5117574;28;20477;-78
2021/05/12 11:52:14;;;;;;;26.90;24.17;;;13.30;99.90;;;;;;5110924;28;20461;-79
2021/05/12 11:54:49;;;;;;;28.87;25.67;;;13.40;99.90;;;;;;5115601;28;20472;-79
2021/05/12 11:57:24;;;;;;;29.20;25.13;;;13.40;99.90;;;;;;5115192;28;20888;-77
2021/05/12 12:00:03;;;;;;;28.23;25.33;;;13.70;99.90;;;;;;5113615;28;20450;-79
2021/05/12 12:02:38;;;;;;;27.40;24.47;;;13.60;99.90;;;;;;5112470;28;20462;-77
2021/05/12 12:05:19;;;;;;;29.50;26.00;;;13.40;99.90;;;;;;5119362;28;20453;-77
2021/05/12 12:07:54;;;;;;;28.70;24.60;;;13.00;99.90;;;;;;5113695;28;20484;-78
2021/05/12 12:10:29;;;;;;;31.10;26.93;;;13.10;99.90;;;;;;5118307;28;20955;-78
2021/05/12 12:13:02;;;;;;;27.77;25.00;;;13.30;99.90;;;;;;5109197;28;20516;-79
2021/05/12 12:15:44;;;;;;;29.83;26.47;;;13.10;99.90;;;;;;5113640;28;20560;-78
2021/05/12 12:18:29;;;;;;;33.43;29.70;;;12.80;99.90;;;;;;5120877;28;20452;-79
2021/05/12 12:21:05;;;;;;;35.87;30.83;;;12.80;99.90;;;;;;5120774;28;20468;-78
2021/05/12 12:23:42;;;;;;;32.20;28.80;;;13.10;99.90;;;;;;5127893;28;20446;-79
2021/05/12 12:26:21;;;;;;;36.03;27.37;;;12.90;99.90;;;;;;5128784;28;20474;-78
2021/05/12 12:29:05;;;;;;;33.13;28.73;;;12.70;99.90;;;;;;5128572;28;20453;-78
2021/05/12 12:31:45;;;;;;;28.50;25.47;;;12.70;99.90;;;;;;5125945;28;20476;-79
2021/05/12 12:34:31;;;;;;;29.47;26.27;;;12.70;99.90;;;;;;5116024;28;20458;-81
2021/05/12 12:37:10;;;;;;;31.40;26.27;;;12.70;99.90;;;;;;5119251;28;20439;-79
2021/05/12 12:39:52;;;;;;;33.37;27.70;;;12.60;99.90;;;;;;5113213;28;20501;-79
2021/05/12 12:42:30;;;;;;;28.97;25.97;;;12.80;99.90;;;;;;5115024;28;20500;-80
2021/05/12 12:45:01;;;;;;;29.87;25.70;;;12.80;99.90;;;;;;5114980;28;20534;-79
2021/05/12 12:47:36;;;;;;;28.60;25.33;;;12.90;99.90;;;;;;5110238;28;20463;-77
2021/05/12 12:50:13;;;;;;;29.50;24.90;;;13.00;99.90;;;;;;5119050;28;20445;-79
2021/05/12 12:52:47;;;;;;;27.30;24.40;;;13.20;99.90;;;;;;5120476;28;20464;-79
2021/05/12 12:55:35;;;;;;;30.77;26.00;;;13.30;99.90;;;;;;5100881;28;20455;-78
2021/05/12 12:58:11;;;;;;;33.13;27.10;;;13.50;99.90;;;;;;5111631;28;20451;-78
2021/05/12 13:00:47;;;;;;;26.97;22.27;;;13.50;99.90;;;;;;5112228;28;20475;-79
2021/05/12 13:03:29;;;;;;;24.17;21.67;;;13.50;99.90;;;;;;5120568;28;20453;-78
2021/05/12 13:06:11;;;;;;;24.80;22.00;;;13.00;99.90;;;;;;5114344;27;20436;-82
2021/05/12 13:08:44;;;;;;;31.97;25.37;;;12.80;99.90;;;;;;5102010;28;20446;-79
2021/05/12 13:11:24;;;;;;;29.37;25.03;;;12.50;99.90;;;;;;5111435;28;20449;-79
2021/05/12 13:14:05;;;;;;;27.70;24.73;;;12.30;99.90;;;;;;5111686;28;20526;-78
2021/05/12 13:16:40;;;;;;;33.13;29.43;;;12.10;99.90;;;;;;5120176;28;20437;-78
2021/05/12 13:19:16;;;;;;;46.90;28.50;;;11.90;99.90;;;;;;5117253;28;20491;-80
2021/05/12 13:21:58;;;;;;;30.53;27.10;;;11.70;99.90;;;;;;5115251;28;20472;-77
2021/05/12 13:24:34;;;;;;;31.33;24.70;;;11.20;99.90;;;;;;5117015;28;20458;-77
2021/05/12 13:27:07;;;;;;;34.00;27.93;;;11.30;99.90;;;;;;5105656;28;20479;-77
2021/05/12 13:29:42;;;;;;;37.10;28.63;;;11.50;99.90;;;;;;5116154;28;20503;-78
2021/05/12 13:32:17;;;;;;;37.70;29.53;;;11.60;99.90;;;;;;5111924;28;20477;-77
2021/05/12 13:35:01;;;;;;;42.60;30.37;;;11.90;99.90;;;;;;5107817;28;20449;-78
2021/05/12 13:37:36;;;;;;;36.67;28.33;;;11.90;99.90;;;;;;5114748;28;20449;-81
2021/05/12 13:40:12;;;;;;;40.90;29.77;;;11.90;99.90;;;;;;5112792;28;20452;-79
2021/05/12 13:42:47;;;;;;;25.93;22.30;;;12.00;99.90;;;;;;5115411;28;20473;-76
2021/05/12 13:45:22;;;;;;;25.97;21.93;;;11.50;99.90;;;;;;5114574;28;21026;-79
2021/05/12 13:47:56;;;;;;;30.73;22.20;;;11.80;99.90;;;;;;5113657;28;20969;-79
2021/05/12 13:50:34;;;;;;;24.60;21.90;;;12.00;99.90;;;;;;5095752;28;20543;-78
2021/05/12 13:53:14;;;;;;;33.70;22.50;;;11.90;99.90;;;;;;5118457;28;20558;-77
2021/05/12 13:55:57;;;;;;;23.20;19.77;;;12.40;99.90;;;;;;5114364;28;20828;-79
2021/05/12 13:58:50;;;;;;;21.67;19.37;;;11.60;99.90;;;;;;5117912;28;20517;-82
2021/05/12 14:04:14;;;;;;;28.87;24.17;;;11.70;99.90;;;;;;5110608;28;20934;-76
2021/05/12 14:06:50;;;;;;;31.77;23.97;;;12.20;99.90;;;;;;5116963;28;20468;-80
2021/05/12 14:09:27;;;;;;;28.60;23.87;;;12.50;99.90;;;;;;5118675;28;20537;-79
2021/05/12 14:12:06;;;;;;;29.73;24.40;;;12.60;99.90;;;;;;5114828;28;20459;-79
2021/05/12 14:14:55;;;;;;;34.13;26.00;;;12.70;99.90;;;;;;5114555;28;20510;-79
2021/05/12 14:17:31;;;;;;;27.10;23.93;;;13.00;99.90;;;;;;5112884;28;20458;-81
2021/05/12 14:20:08;;;;;;;29.03;25.93;;;12.50;99.90;;;;;;5109685;28;20457;-83
2021/05/12 14:22:47;;;;;;;31.83;24.83;;;12.60;99.90;;;;;;5122203;27;20479;-79
2021/05/12 14:25:20;;;;;;;30.40;23.70;;;12.60;99.90;;;;;;5116899;28;20494;-80
2021/05/12 14:28:00;;;;;;;25.93;22.90;;;12.50;99.90;;;;;;5115154;27;20577;-81
2021/05/12 14:30:37;;;;;;;25.00;21.57;;;12.40;99.90;;;;;;5114237;28;21013;-78
2021/05/12 14:33:15;;;;;;;23.33;20.93;;;12.40;99.90;;;;;;5092857;27;20665;-80
2021/05/12 14:35:51;;;;;;;30.20;24.93;;;12.00;99.90;;;;;;5114758;27;20457;-79
2021/05/12 14:38:34;;;;;;;30.40;22.93;;;12.20;99.90;;;;;;5101181;28;20464;-78
2021/05/12 14:41:11;;;;;;;30.87;23.20;;;12.10;99.90;;;;;;5108383;27;20478;-84
2021/05/12 14:43:58;;;;;;;23.63;20.93;;;12.60;99.90;;;;;;5107932;28;20461;-78
2021/05/12 14:46:33;;;;;;;20.90;17.50;;;12.60;99.90;;;;;;5120353;28;20465;-83
2021/05/12 14:49:14;;;;;;;14.07;12.20;;;12.30;99.90;;;;;;5117610;27;20454;-80